Ext Villa Caparra, Puerto Rico
Current Conditions -  °F | °C
As of 9:56 AM on Thursday 30 Oct 2014 (Local Time) from TJSJ Reporting Station
Scattered Clouds Scattered Clouds  
Wind Chill: 86°   Ceiling: Unl
Heat Index: 97°   Visibility: 10mi
Dew Point: 77°   Wind: 3mph
Humidity: 74%   Direction: 10°N
Pressure: 29.86"   Gusts: NA
Location:  18.3882°N, 66.1144°W
Report Text: TJSJ 301356Z 01003KT 10SM FEW018 SCT048 SCT060 30/25 A2986 RMK AO2 SLP111 T03000250
Loading
Personal Weather Stations






























Interactive Weather Map New forecast layout! Learn more

10-Day Weather Forecast

Advertisements
Track Severe Weather on mobile